sensor_id;sensor_type;location;lat;lon;timestamp;P1;durP1;ratioP1;P2;durP2;ratioP2
11771;SDS011;12556;55.748;13.194;2024-03-07T00:01:23;8.57;;;4.93;;
11771;SDS011;12556;55.748;13.194;2024-03-07T00:03:51;7.30;;;5.13;;
11771;SDS011;12556;55.748;13.194;2024-03-07T00:06:18;7.03;;;5.33;;
11771;SDS011;12556;55.748;13.194;2024-03-07T00:08:46;6.33;;;4.73;;
11771;SDS011;12556;55.748;13.194;2024-03-07T00:11:13;7.80;;;4.93;;
11771;SDS011;12556;55.748;13.194;2024-03-07T00:13:40;7.33;;;4.90;;
11771;SDS011;12556;55.748;13.194;2024-03-07T00:16:11;7.83;;;5.03;;
11771;SDS011;12556;55.748;13.194;2024-03-07T00:18:38;5.73;;;4.80;;
11771;SDS011;12556;55.748;13.194;2024-03-07T00:21:05;7.17;;;5.20;;
11771;SDS011;12556;55.748;13.194;2024-03-07T00:23:33;9.03;;;5.17;;
11771;SDS011;12556;55.748;13.194;2024-03-07T00:26:00;5.80;;;4.53;;
11771;SDS011;12556;55.748;13.194;2024-03-07T00:28:27;6.70;;;4.50;;
11771;SDS011;12556;55.748;13.194;2024-03-07T00:30:57;5.53;;;4.80;;
11771;SDS011;12556;55.748;13.194;2024-03-07T00:33:26;7.73;;;5.40;;
11771;SDS011;12556;55.748;13.194;2024-03-07T00:35:53;5.43;;;4.60;;
11771;SDS011;12556;55.748;13.194;2024-03-07T00:38:20;6.97;;;4.30;;
11771;SDS011;12556;55.748;13.194;2024-03-07T00:40:48;6.20;;;4.40;;
11771;SDS011;12556;55.748;13.194;2024-03-07T00:43:15;7.53;;;4.70;;
11771;SDS011;12556;55.748;13.194;2024-03-07T00:45:42;6.50;;;4.87;;
11771;SDS011;12556;55.748;13.194;2024-03-07T00:48:09;6.87;;;4.90;;
11771;SDS011;12556;55.748;13.194;2024-03-07T00:50:38;4.70;;;3.83;;
11771;SDS011;12556;55.748;13.194;2024-03-07T00:53:07;8.23;;;5.03;;
11771;SDS011;12556;55.748;13.194;2024-03-07T00:55:35;6.97;;;5.10;;
11771;SDS011;12556;55.748;13.194;2024-03-07T00:58:02;7.07;;;4.53;;
11771;SDS011;12556;55.748;13.194;2024-03-07T01:00:30;5.63;;;4.97;;
11771;SDS011;12556;55.748;13.194;2024-03-07T01:02:57;6.07;;;5.27;;
11771;SDS011;12556;55.748;13.194;2024-03-07T01:05:24;7.23;;;5.20;;
11771;SDS011;12556;55.748;13.194;2024-03-07T01:07:52;7.67;;;4.90;;
11771;SDS011;12556;55.748;13.194;2024-03-07T01:10:20;7.43;;;5.20;;
11771;SDS011;12556;55.748;13.194;2024-03-07T01:12:47;6.63;;;4.97;;
11771;SDS011;12556;55.748;13.194;2024-03-07T01:15:16;9.40;;;5.40;;
11771;SDS011;12556;55.748;13.194;2024-03-07T01:17:43;7.93;;;5.00;;
11771;SDS011;12556;55.748;13.194;2024-03-07T01:20:11;7.30;;;5.27;;
11771;SDS011;12556;55.748;13.194;2024-03-07T01:22:38;6.17;;;4.83;;
11771;SDS011;12556;55.748;13.194;2024-03-07T01:25:06;8.43;;;5.20;;
11771;SDS011;12556;55.748;13.194;2024-03-07T01:27:33;9.13;;;5.33;;
11771;SDS011;12556;55.748;13.194;2024-03-07T01:30:00;13.20;;;5.70;;
11771;SDS011;12556;55.748;13.194;2024-03-07T01:32:28;8.10;;;5.63;;
11771;SDS011;12556;55.748;13.194;2024-03-07T01:34:55;7.17;;;5.30;;
11771;SDS011;12556;55.748;13.194;2024-03-07T01:37:22;8.37;;;5.57;;
11771;SDS011;12556;55.748;13.194;2024-03-07T01:39:49;7.37;;;5.60;;
11771;SDS011;12556;55.748;13.194;2024-03-07T01:42:17;6.80;;;5.47;;
11771;SDS011;12556;55.748;13.194;2024-03-07T01:44:44;7.20;;;5.67;;
11771;SDS011;12556;55.748;13.194;2024-03-07T01:47:12;8.70;;;5.37;;
11771;SDS011;12556;55.748;13.194;2024-03-07T01:49:40;6.93;;;5.43;;
11771;SDS011;12556;55.748;13.194;2024-03-07T01:52:08;8.70;;;5.67;;
11771;SDS011;12556;55.748;13.194;2024-03-07T01:54:37;7.73;;;5.50;;
11771;SDS011;12556;55.748;13.194;2024-03-07T01:57:05;8.33;;;5.60;;
11771;SDS011;12556;55.748;13.194;2024-03-07T01:59:34;11.73;;;5.70;;
11771;SDS011;12556;55.748;13.194;2024-03-07T02:02:01;6.53;;;5.20;;
11771;SDS011;12556;55.748;13.194;2024-03-07T02:04:28;8.63;;;5.60;;
11771;SDS011;12556;55.748;13.194;2024-03-07T02:06:55;6.93;;;5.03;;
11771;SDS011;12556;55.748;13.194;2024-03-07T02:09:23;10.10;;;5.17;;
11771;SDS011;12556;55.748;13.194;2024-03-07T02:11:50;8.47;;;5.60;;
11771;SDS011;12556;55.748;13.194;2024-03-07T02:14:18;8.57;;;5.73;;
11771;SDS011;12556;55.748;13.194;2024-03-07T02:16:46;7.57;;;5.53;;
11771;SDS011;12556;55.748;13.194;2024-03-07T02:19:14;6.23;;;5.30;;
11771;SDS011;12556;55.748;13.194;2024-03-07T02:21:44;7.20;;;5.30;;
11771;SDS011;12556;55.748;13.194;2024-03-07T02:24:11;8.70;;;5.80;;
11771;SDS011;12556;55.748;13.194;2024-03-07T02:26:39;8.00;;;5.70;;
11771;SDS011;12556;55.748;13.194;2024-03-07T02:29:06;10.30;;;6.57;;
11771;SDS011;12556;55.748;13.194;2024-03-07T02:31:33;8.13;;;5.60;;
11771;SDS011;12556;55.748;13.194;2024-03-07T02:34:06;8.57;;;5.77;;
11771;SDS011;12556;55.748;13.194;2024-03-07T02:36:33;8.43;;;6.40;;
11771;SDS011;12556;55.748;13.194;2024-03-07T02:39:02;8.40;;;5.40;;
11771;SDS011;12556;55.748;13.194;2024-03-07T02:41:29;8.00;;;5.90;;
11771;SDS011;12556;55.748;13.194;2024-03-07T02:43:56;9.17;;;6.20;;
11771;SDS011;12556;55.748;13.194;2024-03-07T02:46:23;8.70;;;6.63;;
11771;SDS011;12556;55.748;13.194;2024-03-07T02:48:50;9.33;;;6.33;;
11771;SDS011;12556;55.748;13.194;2024-03-07T02:51:17;13.07;;;7.30;;
11771;SDS011;12556;55.748;13.194;2024-03-07T02:53:44;8.67;;;6.00;;
11771;SDS011;12556;55.748;13.194;2024-03-07T02:56:12;8.77;;;6.30;;
11771;SDS011;12556;55.748;13.194;2024-03-07T02:58:40;10.73;;;6.87;;
11771;SDS011;12556;55.748;13.194;2024-03-07T03:01:06;10.00;;;6.13;;
11771;SDS011;12556;55.748;13.194;2024-03-07T03:03:34;10.03;;;6.13;;
11771;SDS011;12556;55.748;13.194;2024-03-07T03:06:01;11.77;;;6.90;;
11771;SDS011;12556;55.748;13.194;2024-03-07T03:08:30;9.47;;;5.73;;
11771;SDS011;12556;55.748;13.194;2024-03-07T03:10:57;10.17;;;6.47;;
11771;SDS011;12556;55.748;13.194;2024-03-07T03:13:26;11.33;;;7.00;;
11771;SDS011;12556;55.748;13.194;2024-03-07T03:15:54;9.20;;;5.87;;
11771;SDS011;12556;55.748;13.194;2024-03-07T03:18:21;10.73;;;6.73;;
11771;SDS011;12556;55.748;13.194;2024-03-07T03:20:48;9.87;;;6.77;;
11771;SDS011;12556;55.748;13.194;2024-03-07T03:23:15;10.13;;;6.33;;
11771;SDS011;12556;55.748;13.194;2024-03-07T03:25:42;9.53;;;6.53;;
11771;SDS011;12556;55.748;13.194;2024-03-07T03:28:09;6.77;;;5.80;;
11771;SDS011;12556;55.748;13.194;2024-03-07T03:30:38;8.60;;;5.57;;
11771;SDS011;12556;55.748;13.194;2024-03-07T03:33:06;8.57;;;6.37;;
11771;SDS011;12556;55.748;13.194;2024-03-07T03:35:33;12.73;;;6.93;;
11771;SDS011;12556;55.748;13.194;2024-03-07T03:38:00;7.40;;;6.33;;
11771;SDS011;12556;55.748;13.194;2024-03-07T03:40:27;8.63;;;6.30;;
11771;SDS011;12556;55.748;13.194;2024-03-07T03:42:54;11.13;;;6.30;;
11771;SDS011;12556;55.748;13.194;2024-03-07T03:45:22;10.83;;;6.43;;
11771;SDS011;12556;55.748;13.194;2024-03-07T03:47:52;11.07;;;7.13;;
11771;SDS011;12556;55.748;13.194;2024-03-07T03:50:19;9.33;;;6.00;;
11771;SDS011;12556;55.748;13.194;2024-03-07T03:52:48;9.17;;;6.73;;
11771;SDS011;12556;55.748;13.194;2024-03-07T03:55:15;8.37;;;5.80;;
11771;SDS011;12556;55.748;13.194;2024-03-07T03:57:43;10.90;;;6.87;;
11771;SDS011;12556;55.748;13.194;2024-03-07T04:00:12;9.77;;;7.30;;
11771;SDS011;12556;55.748;13.194;2024-03-07T04:02:39;9.10;;;6.57;;
11771;SDS011;12556;55.748;13.194;2024-03-07T04:05:08;7.40;;;6.00;;
11771;SDS011;12556;55.748;13.194;2024-03-07T04:07:36;9.27;;;6.43;;
11771;SDS011;12556;55.748;13.194;2024-03-07T04:10:04;8.87;;;6.43;;
11771;SDS011;12556;55.748;13.194;2024-03-07T04:12:33;6.97;;;6.27;;
11771;SDS011;12556;55.748;13.194;2024-03-07T04:15:00;9.83;;;6.60;;
11771;SDS011;12556;55.748;13.194;2024-03-07T04:17:29;8.77;;;6.17;;
11771;SDS011;12556;55.748;13.194;2024-03-07T04:19:57;9.83;;;6.23;;
11771;SDS011;12556;55.748;13.194;2024-03-07T04:22:26;7.77;;;6.30;;
11771;SDS011;12556;55.748;13.194;2024-03-07T04:24:53;8.47;;;5.83;;
11771;SDS011;12556;55.748;13.194;2024-03-07T04:27:20;7.83;;;6.10;;
11771;SDS011;12556;55.748;13.194;2024-03-07T04:29:47;9.17;;;6.00;;
11771;SDS011;12556;55.748;13.194;2024-03-07T04:32:15;9.60;;;5.93;;
11771;SDS011;12556;55.748;13.194;2024-03-07T04:34:42;10.00;;;6.40;;
11771;SDS011;12556;55.748;13.194;2024-03-07T04:37:10;8.93;;;6.63;;
11771;SDS011;12556;55.748;13.194;2024-03-07T04:39:38;8.30;;;6.17;;
11771;SDS011;12556;55.748;13.194;2024-03-07T04:42:06;8.70;;;6.10;;
11771;SDS011;12556;55.748;13.194;2024-03-07T04:44:34;8.30;;;6.70;;
11771;SDS011;12556;55.748;13.194;2024-03-07T04:47:04;7.00;;;6.13;;
11771;SDS011;12556;55.748;13.194;2024-03-07T04:49:32;8.60;;;6.27;;
11771;SDS011;12556;55.748;13.194;2024-03-07T04:52:01;9.90;;;6.27;;
11771;SDS011;12556;55.748;13.194;2024-03-07T04:54:30;9.53;;;6.37;;
11771;SDS011;12556;55.748;13.194;2024-03-07T04:57:00;9.90;;;6.30;;
11771;SDS011;12556;55.748;13.194;2024-03-07T04:59:28;6.17;;;5.53;;
11771;SDS011;12556;55.748;13.194;2024-03-07T05:01:56;7.27;;;5.80;;
11771;SDS011;12556;55.748;13.194;2024-03-07T05:04:23;7.63;;;6.53;;
11771;SDS011;12556;55.748;13.194;2024-03-07T05:06:54;6.80;;;5.97;;
11771;SDS011;12556;55.748;13.194;2024-03-07T05:09:22;9.33;;;6.57;;
11771;SDS011;12556;55.748;13.194;2024-03-07T05:11:50;9.67;;;6.53;;
11771;SDS011;12556;55.748;13.194;2024-03-07T05:14:19;8.00;;;6.60;;
11771;SDS011;12556;55.748;13.194;2024-03-07T05:16:47;10.57;;;6.80;;
11771;SDS011;12556;55.748;13.194;2024-03-07T05:19:29;9.60;;;6.93;;
11771;SDS011;12556;55.748;13.194;2024-03-07T05:21:57;8.30;;;6.33;;
11771;SDS011;12556;55.748;13.194;2024-03-07T05:24:24;8.33;;;6.27;;
11771;SDS011;12556;55.748;13.194;2024-03-07T05:26:51;9.90;;;6.70;;
11771;SDS011;12556;55.748;13.194;2024-03-07T05:29:19;9.47;;;6.30;;
11771;SDS011;12556;55.748;13.194;2024-03-07T05:31:46;11.37;;;6.77;;
11771;SDS011;12556;55.748;13.194;2024-03-07T05:34:13;11.37;;;6.47;;
11771;SDS011;12556;55.748;13.194;2024-03-07T05:36:44;8.77;;;6.33;;
11771;SDS011;12556;55.748;13.194;2024-03-07T05:39:11;15.57;;;6.40;;
11771;SDS011;12556;55.748;13.194;2024-03-07T05:41:40;8.63;;;6.07;;
11771;SDS011;12556;55.748;13.194;2024-03-07T05:44:08;8.53;;;6.17;;
11771;SDS011;12556;55.748;13.194;2024-03-07T05:46:37;9.03;;;6.20;;
11771;SDS011;12556;55.748;13.194;2024-03-07T05:49:06;11.87;;;5.93;;
11771;SDS011;12556;55.748;13.194;2024-03-07T05:51:33;9.63;;;6.83;;
11771;SDS011;12556;55.748;13.194;2024-03-07T05:54:01;8.80;;;6.30;;
11771;SDS011;12556;55.748;13.194;2024-03-07T05:56:31;8.33;;;6.03;;
11771;SDS011;12556;55.748;13.194;2024-03-07T05:59:00;11.27;;;7.20;;
11771;SDS011;12556;55.748;13.194;2024-03-07T06:01:29;9.37;;;6.40;;
11771;SDS011;12556;55.748;13.194;2024-03-07T06:03:59;10.27;;;6.93;;
11771;SDS011;12556;55.748;13.194;2024-03-07T06:06:26;9.63;;;6.00;;
11771;SDS011;12556;55.748;13.194;2024-03-07T06:08:53;8.73;;;5.50;;
11771;SDS011;12556;55.748;13.194;2024-03-07T06:11:21;10.17;;;5.73;;
11771;SDS011;12556;55.748;13.194;2024-03-07T06:13:48;9.43;;;7.10;;
11771;SDS011;12556;55.748;13.194;2024-03-07T06:16:15;10.97;;;6.83;;
11771;SDS011;12556;55.748;13.194;2024-03-07T06:18:43;9.77;;;6.43;;
11771;SDS011;12556;55.748;13.194;2024-03-07T06:21:12;8.90;;;6.63;;
11771;SDS011;12556;55.748;13.194;2024-03-07T06:23:39;9.10;;;6.37;;
11771;SDS011;12556;55.748;13.194;2024-03-07T06:26:08;7.83;;;5.57;;
11771;SDS011;12556;55.748;13.194;2024-03-07T06:28:42;9.83;;;6.73;;
11771;SDS011;12556;55.748;13.194;2024-03-07T06:31:10;11.93;;;6.27;;
11771;SDS011;12556;55.748;13.194;2024-03-07T06:33:37;7.30;;;6.43;;
11771;SDS011;12556;55.748;13.194;2024-03-07T06:36:04;9.60;;;6.57;;
11771;SDS011;12556;55.748;13.194;2024-03-07T06:38:33;9.00;;;6.50;;
11771;SDS011;12556;55.748;13.194;2024-03-07T06:41:00;10.73;;;8.10;;
11771;SDS011;12556;55.748;13.194;2024-03-07T06:43:27;9.23;;;6.67;;
11771;SDS011;12556;55.748;13.194;2024-03-07T06:45:55;8.97;;;6.77;;
11771;SDS011;12556;55.748;13.194;2024-03-07T06:48:22;9.50;;;7.37;;
11771;SDS011;12556;55.748;13.194;2024-03-07T06:50:49;8.80;;;7.00;;
11771;SDS011;12556;55.748;13.194;2024-03-07T06:53:17;7.00;;;6.03;;
11771;SDS011;12556;55.748;13.194;2024-03-07T06:55:46;10.33;;;7.40;;
11771;SDS011;12556;55.748;13.194;2024-03-07T06:58:14;8.87;;;6.23;;
11771;SDS011;12556;55.748;13.194;2024-03-07T07:00:42;9.80;;;6.70;;
11771;SDS011;12556;55.748;13.194;2024-03-07T07:03:10;8.77;;;6.33;;
11771;SDS011;12556;55.748;13.194;2024-03-07T07:05:37;8.73;;;5.50;;
11771;SDS011;12556;55.748;13.194;2024-03-07T07:08:06;8.10;;;5.70;;
11771;SDS011;12556;55.748;13.194;2024-03-07T07:10:34;9.00;;;5.70;;
11771;SDS011;12556;55.748;13.194;2024-03-07T07:13:03;9.33;;;6.40;;
11771;SDS011;12556;55.748;13.194;2024-03-07T07:15:30;9.30;;;6.20;;
11771;SDS011;12556;55.748;13.194;2024-03-07T07:17:56;8.73;;;5.73;;
11771;SDS011;12556;55.748;13.194;2024-03-07T07:20:24;6.63;;;5.20;;
11771;SDS011;12556;55.748;13.194;2024-03-07T07:22:51;7.53;;;5.57;;
11771;SDS011;12556;55.748;13.194;2024-03-07T07:25:18;10.23;;;5.93;;
11771;SDS011;12556;55.748;13.194;2024-03-07T07:27:47;7.47;;;5.97;;
11771;SDS011;12556;55.748;13.194;2024-03-07T07:30:17;7.87;;;5.10;;
11771;SDS011;12556;55.748;13.194;2024-03-07T07:32:44;7.13;;;5.40;;
11771;SDS011;12556;55.748;13.194;2024-03-07T07:35:12;7.53;;;5.43;;
11771;SDS011;12556;55.748;13.194;2024-03-07T07:37:40;7.60;;;5.00;;
11771;SDS011;12556;55.748;13.194;2024-03-07T07:40:07;7.57;;;5.13;;
11771;SDS011;12556;55.748;13.194;2024-03-07T07:42:38;7.13;;;5.30;;
11771;SDS011;12556;55.748;13.194;2024-03-07T07:45:07;9.23;;;5.10;;
11771;SDS011;12556;55.748;13.194;2024-03-07T07:47:38;8.20;;;5.17;;
11771;SDS011;12556;55.748;13.194;2024-03-07T07:50:07;6.87;;;4.57;;
11771;SDS011;12556;55.748;13.194;2024-03-07T07:52:39;6.83;;;6.13;;
11771;SDS011;12556;55.748;13.194;2024-03-07T07:55:07;6.40;;;4.70;;
11771;SDS011;12556;55.748;13.194;2024-03-07T07:57:40;7.57;;;5.07;;
11771;SDS011;12556;55.748;13.194;2024-03-07T08:00:10;8.80;;;5.10;;
11771;SDS011;12556;55.748;13.194;2024-03-07T08:02:47;7.70;;;4.70;;
11771;SDS011;12556;55.748;13.194;2024-03-07T08:05:15;8.03;;;5.20;;
11771;SDS011;12556;55.748;13.194;2024-03-07T08:07:43;6.57;;;5.37;;
11771;SDS011;12556;55.748;13.194;2024-03-07T08:10:10;9.57;;;5.17;;
11771;SDS011;12556;55.748;13.194;2024-03-07T08:12:37;8.17;;;5.13;;
11771;SDS011;12556;55.748;13.194;2024-03-07T08:15:06;8.10;;;5.13;;
11771;SDS011;12556;55.748;13.194;2024-03-07T08:17:38;5.37;;;4.70;;
11771;SDS011;12556;55.748;13.194;2024-03-07T08:20:10;7.50;;;5.57;;
11771;SDS011;12556;55.748;13.194;2024-03-07T08:22:38;5.67;;;5.03;;
11771;SDS011;12556;55.748;13.194;2024-03-07T08:25:07;5.60;;;4.83;;
11771;SDS011;12556;55.748;13.194;2024-03-07T08:27:36;5.53;;;4.90;;
11771;SDS011;12556;55.748;13.194;2024-03-07T08:30:04;5.90;;;4.97;;
11771;SDS011;12556;55.748;13.194;2024-03-07T08:32:32;9.27;;;5.47;;
11771;SDS011;12556;55.748;13.194;2024-03-07T08:35:02;9.20;;;5.40;;
11771;SDS011;12556;55.748;13.194;2024-03-07T08:37:33;5.43;;;4.53;;
11771;SDS011;12556;55.748;13.194;2024-03-07T08:40:01;5.27;;;4.00;;
11771;SDS011;12556;55.748;13.194;2024-03-07T08:42:31;8.10;;;4.97;;
11771;SDS011;12556;55.748;13.194;2024-03-07T08:44:59;5.80;;;4.60;;
11771;SDS011;12556;55.748;13.194;2024-03-07T08:47:26;7.57;;;5.27;;
11771;SDS011;12556;55.748;13.194;2024-03-07T08:49:55;6.23;;;4.10;;
11771;SDS011;12556;55.748;13.194;2024-03-07T08:52:22;6.07;;;4.10;;
11771;SDS011;12556;55.748;13.194;2024-03-07T08:54:50;6.80;;;4.00;;
11771;SDS011;12556;55.748;13.194;2024-03-07T08:57:17;8.40;;;4.50;;
11771;SDS011;12556;55.748;13.194;2024-03-07T08:59:44;5.63;;;4.03;;
11771;SDS011;12556;55.748;13.194;2024-03-07T09:02:12;4.60;;;4.10;;
11771;SDS011;12556;55.748;13.194;2024-03-07T09:04:39;7.47;;;4.17;;
11771;SDS011;12556;55.748;13.194;2024-03-07T09:07:06;5.07;;;3.53;;
11771;SDS011;12556;55.748;13.194;2024-03-07T09:09:33;6.67;;;3.73;;
11771;SDS011;12556;55.748;13.194;2024-03-07T09:12:02;6.37;;;3.70;;
11771;SDS011;12556;55.748;13.194;2024-03-07T09:14:30;4.53;;;3.83;;
11771;SDS011;12556;55.748;13.194;2024-03-07T09:16:57;5.63;;;4.20;;
11771;SDS011;12556;55.748;13.194;2024-03-07T09:19:24;5.70;;;3.90;;
11771;SDS011;12556;55.748;13.194;2024-03-07T09:21:52;6.40;;;4.40;;
11771;SDS011;12556;55.748;13.194;2024-03-07T09:24:19;5.30;;;3.77;;
11771;SDS011;12556;55.748;13.194;2024-03-07T09:26:48;4.43;;;3.17;;
11771;SDS011;12556;55.748;13.194;2024-03-07T09:29:16;5.30;;;4.30;;
11771;SDS011;12556;55.748;13.194;2024-03-07T09:31:43;5.30;;;3.70;;
11771;SDS011;12556;55.748;13.194;2024-03-07T09:34:11;6.33;;;3.43;;
11771;SDS011;12556;55.748;13.194;2024-03-07T09:36:40;9.80;;;4.23;;
11771;SDS011;12556;55.748;13.194;2024-03-07T09:39:07;4.80;;;3.47;;
11771;SDS011;12556;55.748;13.194;2024-03-07T09:41:35;3.67;;;3.20;;
11771;SDS011;12556;55.748;13.194;2024-03-07T09:44:02;3.47;;;3.17;;
11771;SDS011;12556;55.748;13.194;2024-03-07T09:46:32;4.67;;;3.60;;
11771;SDS011;12556;55.748;13.194;2024-03-07T09:49:00;4.13;;;3.00;;
11771;SDS011;12556;55.748;13.194;2024-03-07T09:51:27;3.80;;;3.40;;
11771;SDS011;12556;55.748;13.194;2024-03-07T09:53:56;7.27;;;3.37;;
11771;SDS011;12556;55.748;13.194;2024-03-07T09:56:25;5.17;;;3.13;;
11771;SDS011;12556;55.748;13.194;2024-03-07T09:58:56;4.03;;;3.33;;
11771;SDS011;12556;55.748;13.194;2024-03-07T10:01:25;5.13;;;3.13;;
11771;SDS011;12556;55.748;13.194;2024-03-07T10:03:57;5.90;;;4.20;;
11771;SDS011;12556;55.748;13.194;2024-03-07T10:06:26;5.37;;;2.90;;
11771;SDS011;12556;55.748;13.194;2024-03-07T10:08:54;8.43;;;3.40;;
11771;SDS011;12556;55.748;13.194;2024-03-07T10:11:23;4.47;;;2.93;;
11771;SDS011;12556;55.748;13.194;2024-03-07T10:13:52;4.67;;;3.10;;
11771;SDS011;12556;55.748;13.194;2024-03-07T10:16:20;4.80;;;3.27;;
11771;SDS011;12556;55.748;13.194;2024-03-07T10:18:48;4.60;;;3.40;;
11771;SDS011;12556;55.748;13.194;2024-03-07T10:21:19;4.77;;;3.60;;
11771;SDS011;12556;55.748;13.194;2024-03-07T10:23:47;3.57;;;3.10;;
11771;SDS011;12556;55.748;13.194;2024-03-07T10:26:15;3.83;;;3.30;;
11771;SDS011;12556;55.748;13.194;2024-03-07T10:28:42;4.70;;;3.00;;
11771;SDS011;12556;55.748;13.194;2024-03-07T10:31:09;5.50;;;3.10;;
11771;SDS011;12556;55.748;13.194;2024-03-07T10:33:40;4.33;;;3.20;;
11771;SDS011;12556;55.748;13.194;2024-03-07T10:36:09;5.03;;;2.90;;
11771;SDS011;12556;55.748;13.194;2024-03-07T10:38:40;4.00;;;3.50;;
11771;SDS011;12556;55.748;13.194;2024-03-07T10:41:07;4.30;;;3.27;;
11771;SDS011;12556;55.748;13.194;2024-03-07T10:43:35;5.63;;;3.50;;
11771;SDS011;12556;55.748;13.194;2024-03-07T10:46:07;4.80;;;3.37;;
11771;SDS011;12556;55.748;13.194;2024-03-07T10:48:38;3.77;;;3.13;;
11771;SDS011;12556;55.748;13.194;2024-03-07T10:51:14;6.03;;;3.20;;
11771;SDS011;12556;55.748;13.194;2024-03-07T10:53:52;4.10;;;3.53;;
11771;SDS011;12556;55.748;13.194;2024-03-07T10:56:29;3.67;;;3.30;;
11771;SDS011;12556;55.748;13.194;2024-03-07T10:59:07;4.07;;;3.27;;
11771;SDS011;12556;55.748;13.194;2024-03-07T11:01:44;7.23;;;3.47;;
11771;SDS011;12556;55.748;13.194;2024-03-07T11:04:15;6.40;;;3.50;;
11771;SDS011;12556;55.748;13.194;2024-03-07T11:06:44;3.13;;;2.83;;
11771;SDS011;12556;55.748;13.194;2024-03-07T11:09:13;3.43;;;3.10;;
11771;SDS011;12556;55.748;13.194;2024-03-07T11:11:48;4.37;;;3.57;;
11771;SDS011;12556;55.748;13.194;2024-03-07T11:14:15;3.63;;;3.07;;
11771;SDS011;12556;55.748;13.194;2024-03-07T11:16:43;5.37;;;3.73;;
11771;SDS011;12556;55.748;13.194;2024-03-07T11:22:03;4.07;;;3.03;;
11771;SDS011;12556;55.748;13.194;2024-03-07T11:24:41;5.43;;;3.33;;
11771;SDS011;12556;55.748;13.194;2024-03-07T11:27:09;3.97;;;3.20;;
11771;SDS011;12556;55.748;13.194;2024-03-07T11:29:43;3.40;;;3.00;;
11771;SDS011;12556;55.748;13.194;2024-03-07T11:32:17;4.37;;;3.00;;
11771;SDS011;12556;55.748;13.194;2024-03-07T11:34:46;5.57;;;3.83;;
11771;SDS011;12556;55.748;13.194;2024-03-07T11:37:17;4.73;;;3.60;;
11771;SDS011;12556;55.748;13.194;2024-03-07T11:39:49;4.73;;;3.20;;
11771;SDS011;12556;55.748;13.194;2024-03-07T11:42:24;5.43;;;3.87;;
11771;SDS011;12556;55.748;13.194;2024-03-07T11:44:53;4.30;;;3.60;;
11771;SDS011;12556;55.748;13.194;2024-03-07T11:47:22;3.57;;;3.27;;
11771;SDS011;12556;55.748;13.194;2024-03-07T11:49:50;4.00;;;3.60;;
11771;SDS011;12556;55.748;13.194;2024-03-07T11:52:17;6.57;;;3.50;;
11771;SDS011;12556;55.748;13.194;2024-03-07T11:54:45;3.80;;;2.97;;
11771;SDS011;12556;55.748;13.194;2024-03-07T11:57:15;3.93;;;3.23;;
11771;SDS011;12556;55.748;13.194;2024-03-07T11:59:44;3.77;;;3.03;;
11771;SDS011;12556;55.748;13.194;2024-03-07T12:02:17;3.63;;;3.10;;
11771;SDS011;12556;55.748;13.194;2024-03-07T12:04:46;4.17;;;3.80;;
11771;SDS011;12556;55.748;13.194;2024-03-07T12:07:13;4.77;;;3.47;;
11771;SDS011;12556;55.748;13.194;2024-03-07T12:09:42;3.43;;;3.13;;
11771;SDS011;12556;55.748;13.194;2024-03-07T12:12:16;4.10;;;3.60;;
11771;SDS011;12556;55.748;13.194;2024-03-07T12:14:46;4.93;;;3.30;;
11771;SDS011;12556;55.748;13.194;2024-03-07T12:17:17;3.73;;;3.20;;
11771;SDS011;12556;55.748;13.194;2024-03-07T12:19:45;3.73;;;3.43;;
11771;SDS011;12556;55.748;13.194;2024-03-07T12:22:13;4.80;;;3.87;;
11771;SDS011;12556;55.748;13.194;2024-03-07T12:24:48;4.80;;;3.60;;
11771;SDS011;12556;55.748;13.194;2024-03-07T12:27:28;5.63;;;3.57;;
11771;SDS011;12556;55.748;13.194;2024-03-07T12:29:56;4.70;;;3.50;;
11771;SDS011;12556;55.748;13.194;2024-03-07T12:32:27;4.33;;;3.50;;
11771;SDS011;12556;55.748;13.194;2024-03-07T12:34:54;5.17;;;3.30;;
11771;SDS011;12556;55.748;13.194;2024-03-07T12:37:21;4.53;;;3.20;;
11771;SDS011;12556;55.748;13.194;2024-03-07T12:39:52;4.27;;;3.20;;
11771;SDS011;12556;55.748;13.194;2024-03-07T12:42:26;5.20;;;3.40;;
11771;SDS011;12556;55.748;13.194;2024-03-07T12:44:57;5.27;;;3.50;;
11771;SDS011;12556;55.748;13.194;2024-03-07T12:47:25;3.93;;;3.30;;
11771;SDS011;12556;55.748;13.194;2024-03-07T12:49:52;6.27;;;3.30;;
11771;SDS011;12556;55.748;13.194;2024-03-07T12:52:19;3.83;;;3.30;;
11771;SDS011;12556;55.748;13.194;2024-03-07T12:54:46;3.30;;;3.00;;
11771;SDS011;12556;55.748;13.194;2024-03-07T12:57:15;3.60;;;3.17;;
11771;SDS011;12556;55.748;13.194;2024-03-07T12:59:43;4.23;;;3.53;;
11771;SDS011;12556;55.748;13.194;2024-03-07T13:02:10;3.87;;;3.47;;
11771;SDS011;12556;55.748;13.194;2024-03-07T13:04:38;3.03;;;2.73;;
11771;SDS011;12556;55.748;13.194;2024-03-07T13:07:05;4.00;;;3.33;;
11771;SDS011;12556;55.748;13.194;2024-03-07T13:09:33;3.67;;;3.10;;
11771;SDS011;12556;55.748;13.194;2024-03-07T13:12:01;4.67;;;3.20;;
11771;SDS011;12556;55.748;13.194;2024-03-07T13:14:33;3.73;;;3.30;;
11771;SDS011;12556;55.748;13.194;2024-03-07T13:17:01;5.67;;;3.43;;
11771;SDS011;12556;55.748;13.194;2024-03-07T13:19:29;3.20;;;2.90;;
11771;SDS011;12556;55.748;13.194;2024-03-07T13:21:56;7.23;;;3.37;;
11771;SDS011;12556;55.748;13.194;2024-03-07T13:24:24;4.17;;;3.53;;
11771;SDS011;12556;55.748;13.194;2024-03-07T13:26:52;5.17;;;3.17;;
11771;SDS011;12556;55.748;13.194;2024-03-07T13:29:20;3.63;;;3.33;;
11771;SDS011;12556;55.748;13.194;2024-03-07T13:31:49;4.37;;;3.10;;
11771;SDS011;12556;55.748;13.194;2024-03-07T13:34:19;3.47;;;3.10;;
11771;SDS011;12556;55.748;13.194;2024-03-07T13:36:46;4.07;;;3.00;;
11771;SDS011;12556;55.748;13.194;2024-03-07T13:39:13;4.17;;;2.97;;
11771;SDS011;12556;55.748;13.194;2024-03-07T13:41:40;3.27;;;2.97;;
11771;SDS011;12556;55.748;13.194;2024-03-07T13:44:08;4.33;;;3.43;;
11771;SDS011;12556;55.748;13.194;2024-03-07T13:46:36;3.83;;;3.53;;
11771;SDS011;12556;55.748;13.194;2024-03-07T13:49:04;4.13;;;3.60;;
11771;SDS011;12556;55.748;13.194;2024-03-07T13:51:39;3.93;;;3.53;;
11771;SDS011;12556;55.748;13.194;2024-03-07T13:54:15;4.40;;;3.10;;
11771;SDS011;12556;55.748;13.194;2024-03-07T13:57:01;4.30;;;2.90;;
11771;SDS011;12556;55.748;13.194;2024-03-07T13:59:45;4.80;;;3.50;;
11771;SDS011;12556;55.748;13.194;2024-03-07T14:08:25;3.77;;;3.17;;
11771;SDS011;12556;55.748;13.194;2024-03-07T14:11:18;3.47;;;2.77;;
11771;SDS011;12556;55.748;13.194;2024-03-07T14:14:21;3.83;;;3.47;;
11771;SDS011;12556;55.748;13.194;2024-03-07T14:20:29;5.13;;;3.10;;
11771;SDS011;12556;55.748;13.194;2024-03-07T14:23:18;3.57;;;2.93;;
11771;SDS011;12556;55.748;13.194;2024-03-07T14:26:02;5.40;;;3.07;;
11771;SDS011;12556;55.748;13.194;2024-03-07T14:29:00;4.50;;;3.07;;
11771;SDS011;12556;55.748;13.194;2024-03-07T14:31:40;5.43;;;3.33;;
11771;SDS011;12556;55.748;13.194;2024-03-07T14:34:11;3.73;;;3.10;;
11771;SDS011;12556;55.748;13.194;2024-03-07T14:36:45;4.20;;;3.00;;
11771;SDS011;12556;55.748;13.194;2024-03-07T14:39:16;3.97;;;3.47;;
11771;SDS011;12556;55.748;13.194;2024-03-07T14:41:49;3.83;;;3.27;;
11771;SDS011;12556;55.748;13.194;2024-03-07T14:44:19;4.50;;;3.33;;
11771;SDS011;12556;55.748;13.194;2024-03-07T14:46:47;3.83;;;2.83;;
11771;SDS011;12556;55.748;13.194;2024-03-07T14:49:18;3.87;;;3.23;;
11771;SDS011;12556;55.748;13.194;2024-03-07T14:51:46;8.07;;;3.60;;
11771;SDS011;12556;55.748;13.194;2024-03-07T14:54:16;3.50;;;3.20;;
11771;SDS011;12556;55.748;13.194;2024-03-07T14:56:43;3.97;;;3.30;;